createdAt,value
2023-03-24T00:01:58.565Z,14.50
2023-03-24T00:11:53.178Z,14.40
2023-03-24T00:15:26.478Z,14.50
2023-03-24T00:18:28.685Z,14.50
2023-03-24T00:21:46.117Z,14.50
2023-03-24T01:06:25.131Z,14.60
2023-03-24T02:45:01.262Z,14.60
2023-03-24T05:28:32.782Z,14.80
2023-03-24T05:31:59.928Z,14.80
2023-03-24T05:39:02.400Z,14.90
2023-03-24T05:48:49.526Z,15.00
2023-03-24T05:52:36.860Z,15.00
2023-03-24T06:44:41.885Z,14.60
2023-03-24T07:06:43.212Z,14.80
2023-03-24T07:42:06.373Z,14.70
2023-03-24T08:10:23.308Z,14.60
2023-03-24T08:42:12.139Z,15.10
2023-03-24T09:00:10.496Z,15.40
2023-03-24T09:20:13.994Z,16.30
2023-03-24T09:22:43.923Z,16.50
2023-03-24T09:25:15.419Z,16.60
2023-03-24T09:27:42.425Z,16.70
2023-03-24T09:30:11.155Z,16.70
2023-03-24T09:32:38.485Z,16.80
2023-03-24T09:35:06.614Z,17.00
2023-03-24T09:37:34.862Z,17.10
2023-03-24T09:40:02.482Z,17.10
2023-03-24T09:42:33.992Z,17.20
2023-03-24T09:45:10.571Z,17.30
2023-03-24T09:47:44.280Z,17.40
2023-03-24T09:50:25.063Z,17.40
2023-03-24T09:53:02.892Z,17.50
2023-03-24T09:55:29.818Z,17.50
2023-03-24T09:58:03.479Z,17.50
2023-03-24T10:00:34.647Z,17.50
2023-03-24T10:03:11.403Z,17.40
2023-03-24T10:05:44.705Z,17.40
2023-03-24T10:08:31.952Z,17.50
2023-03-24T10:11:42.400Z,17.50
2023-03-24T10:14:41.764Z,17.40
2023-03-24T10:17:33.624Z,17.40
2023-03-24T10:20:07.867Z,17.40
2023-03-24T10:22:56.709Z,17.50
2023-03-24T10:25:35.845Z,17.50
2023-03-24T10:28:24.948Z,17.60
2023-03-24T10:30:55.782Z,17.70
2023-03-24T10:33:22.574Z,17.80
2023-03-24T10:36:07.916Z,17.90
2023-03-24T10:38:35.729Z,18.10
2023-03-24T10:41:02.976Z,18.10
2023-03-24T10:43:30.891Z,18.00
2023-03-24T10:46:01.399Z,18.00
2023-03-24T10:48:40.327Z,18.00
2023-03-24T10:51:08.980Z,18.00
2023-03-24T10:53:35.847Z,18.10
2023-03-24T10:56:04.764Z,18.10
2023-03-24T10:58:43.258Z,18.10
2023-03-24T11:01:31.148Z,18.10
2023-03-24T11:04:05.783Z,18.10
2023-03-24T11:11:28.015Z,18.20
2023-03-24T11:14:18.812Z,18.20
2023-03-24T11:20:43.694Z,18.10
2023-03-24T11:33:34.595Z,18.20
2023-03-24T11:36:59.880Z,18.20
2023-03-24T11:43:41.795Z,18.10
2023-03-24T11:56:11.804Z,18.10
2023-03-24T12:05:58.092Z,18.20
2023-03-24T12:09:13.501Z,18.20
2023-03-24T12:15:27.139Z,18.20
2023-03-24T12:21:53.765Z,18.10
2023-03-24T12:25:07.083Z,18.10
2023-03-24T12:28:04.968Z,18.10
2023-03-24T12:31:13.106Z,18.20
2023-03-24T12:34:22.099Z,18.20
2023-03-24T12:40:45.803Z,18.20
2023-03-24T12:44:17.144Z,18.20
2023-03-24T12:50:20.816Z,18.20
2023-03-24T12:53:24.303Z,18.20
2023-03-24T13:03:20.991Z,18.10
2023-03-24T13:06:31.454Z,18.00
2023-03-24T13:12:49.442Z,18.10
2023-03-24T13:15:58.349Z,18.00
2023-03-24T13:29:06.766Z,18.10
2023-03-24T13:35:43.603Z,18.20
2023-03-24T13:41:23.924Z,18.30
2023-03-24T13:44:52.662Z,18.20
2023-03-24T13:47:44.216Z,18.20
2023-03-24T13:56:53.601Z,18.20
2023-03-24T14:00:29.893Z,18.30
2023-03-24T14:04:00.744Z,18.30
2023-03-24T14:10:44.566Z,18.10
2023-03-24T14:17:35.121Z,18.20
2023-03-24T14:20:26.524Z,18.10
2023-03-24T14:22:55.706Z,18.20
2023-03-24T14:25:27.259Z,18.20
2023-03-24T14:28:07.854Z,18.20
2023-03-24T14:30:38.301Z,18.10
2023-03-24T14:33:05.798Z,18.10
2023-03-24T14:35:44.945Z,18.20
2023-03-24T14:38:15.605Z,18.20
2023-03-24T14:40:45.520Z,18.10
2023-03-24T14:43:28.682Z,18.10
2023-03-24T14:45:55.837Z,18.00
2023-03-24T14:48:48.543Z,17.90
2023-03-24T14:51:52.871Z,17.90
2023-03-24T14:54:28.962Z,17.80
2023-03-24T14:56:57.918Z,17.90
2023-03-24T14:59:36.964Z,17.90
2023-03-24T15:02:16.876Z,17.90
2023-03-24T15:05:21.960Z,18.00
2023-03-24T15:08:13.795Z,18.00
2023-03-24T15:10:43.369Z,18.00
2023-03-24T15:13:30.411Z,18.10
2023-03-24T15:15:58.088Z,18.10
2023-03-24T15:18:28.192Z,18.10
2023-03-24T15:20:55.121Z,18.00
2023-03-24T15:23:31.400Z,17.90
2023-03-24T15:25:58.443Z,17.80
2023-03-24T15:28:28.043Z,17.80
2023-03-24T15:30:56.646Z,17.80
2023-03-24T15:33:23.612Z,17.80
2023-03-24T15:35:57.261Z,17.70
2023-03-24T15:38:33.781Z,17.60
2023-03-24T15:41:08.363Z,17.60
2023-03-24T15:43:45.756Z,17.60
2023-03-24T15:46:27.774Z,17.60
2023-03-24T15:48:56.267Z,17.50
2023-03-24T15:51:52.714Z,17.40
2023-03-24T15:54:23.620Z,17.40
2023-03-24T15:57:23.634Z,17.30
2023-03-24T16:00:19.285Z,17.30
2023-03-24T16:02:54.292Z,17.20
2023-03-24T16:05:27.876Z,17.10
2023-03-24T16:08:00.240Z,17.10
2023-03-24T16:10:43.413Z,17.00
2023-03-24T16:13:19.561Z,17.10
2023-03-24T16:15:57.417Z,16.90
2023-03-24T16:18:34.555Z,16.90
2023-03-24T16:21:02.933Z,16.80
2023-03-24T16:23:32.844Z,16.80
2023-03-24T16:25:59.673Z,16.80
2023-03-24T16:28:27.808Z,16.80
2023-03-24T16:31:04.451Z,16.70
2023-03-24T16:33:31.798Z,16.70
2023-03-24T16:35:58.887Z,16.60
2023-03-24T16:38:26.665Z,16.70
2023-03-24T16:40:57.613Z,16.60
2023-03-24T16:43:25.351Z,16.60
2023-03-24T16:45:52.255Z,16.50
2023-03-24T16:48:19.218Z,16.50
2023-03-24T16:50:50.602Z,16.60
2023-03-24T16:53:18.860Z,16.60
2023-03-24T16:55:47.024Z,16.60
2023-03-24T16:58:16.548Z,16.60
2023-03-24T17:00:45.952Z,16.60
2023-03-24T17:03:14.192Z,16.60
2023-03-24T17:05:49.555Z,16.50
2023-03-24T17:08:18.751Z,16.60
2023-03-24T17:10:48.032Z,16.60
2023-03-24T17:13:26.062Z,16.60
2023-03-24T17:15:53.234Z,16.50
2023-03-24T17:18:20.657Z,16.50
2023-03-24T17:20:48.504Z,16.50
2023-03-24T17:23:18.798Z,16.40
2023-03-24T17:25:46.107Z,16.50
2023-03-24T17:28:16.256Z,16.50
2023-03-24T17:30:43.871Z,16.50
2023-03-24T17:33:15.854Z,16.40
2023-03-24T17:35:45.958Z,16.40
2023-03-24T17:38:15.243Z,16.40
2023-03-24T17:40:42.800Z,16.40
2023-03-24T17:43:15.978Z,16.40
2023-03-24T17:45:43.070Z,16.40
2023-03-24T17:48:10.136Z,16.30
2023-03-24T17:50:36.958Z,16.30
2023-03-24T17:53:04.607Z,16.30
2023-03-24T17:55:31.446Z,16.10
2023-03-24T17:57:58.267Z,15.80
2023-03-24T18:00:25.315Z,15.60
2023-03-24T18:02:52.849Z,15.40
2023-03-24T18:05:19.829Z,15.30
2023-03-24T18:07:47.039Z,15.10
2023-03-24T18:10:14.770Z,15.10
2023-03-24T18:12:41.740Z,15.10
2023-03-24T18:15:09.216Z,15.10
2023-03-24T18:17:36.739Z,15.10
2023-03-24T18:20:11.325Z,15.10
2023-03-24T18:22:41.198Z,15.10
2023-03-24T18:25:11.817Z,15.00
2023-03-24T18:27:39.069Z,15.00
2023-03-24T18:30:08.990Z,15.10
2023-03-24T18:32:39.017Z,15.00
2023-03-24T18:35:17.337Z,15.00
2023-03-24T18:37:44.970Z,15.10
2023-03-24T18:40:17.318Z,15.10
2023-03-24T18:42:44.469Z,15.10
2023-03-24T18:45:22.462Z,15.10
2023-03-24T18:47:49.284Z,14.90
2023-03-24T18:50:21.321Z,14.90
2023-03-24T18:52:48.103Z,14.80
2023-03-24T18:55:15.979Z,14.70
2023-03-24T18:57:42.833Z,14.70
2023-03-24T19:00:11.275Z,14.60
2023-03-24T19:02:38.307Z,14.60
2023-03-24T19:05:05.851Z,14.50
2023-03-24T19:07:33.646Z,14.50
2023-03-24T19:10:03.874Z,14.40
2023-03-24T19:12:30.909Z,14.30
2023-03-24T19:14:57.696Z,14.20
2023-03-24T19:17:24.608Z,14.20
2023-03-24T19:19:51.469Z,14.20
2023-03-24T19:22:22.272Z,14.10
2023-03-24T19:24:49.129Z,14.10
2023-03-24T19:27:16.265Z,14.20
2023-03-24T19:29:45.146Z,14.10
2023-03-24T19:32:11.918Z,14.10
2023-03-24T19:34:38.940Z,14.00
2023-03-24T19:37:05.958Z,14.10
2023-03-24T19:39:32.923Z,14.00
2023-03-24T19:42:00.788Z,14.00
2023-03-24T19:44:27.703Z,14.00
2023-03-24T19:46:54.553Z,13.90
2023-03-24T19:49:21.539Z,14.00
2023-03-24T19:54:18.194Z,13.70
2023-03-24T19:56:45.078Z,13.70
2023-03-24T19:59:11.892Z,13.60
2023-03-24T20:01:38.888Z,13.70
2023-03-24T20:04:06.000Z,13.60
2023-03-24T20:06:32.844Z,13.60
2023-03-24T20:08:59.685Z,13.60
2023-03-24T20:11:26.524Z,13.60
2023-03-24T20:13:53.423Z,13.50
2023-03-24T20:16:20.510Z,13.50
2023-03-24T20:18:47.357Z,13.40
2023-03-24T20:21:18.790Z,13.40
2023-03-24T20:23:45.563Z,13.30
2023-03-24T20:26:12.422Z,13.30
2023-03-24T20:28:39.225Z,13.30
2023-03-24T20:31:06.571Z,13.30
2023-03-24T20:33:33.886Z,13.30
2023-03-24T20:36:01.030Z,13.20
2023-03-24T20:38:28.247Z,13.20
2023-03-24T20:41:04.236Z,13.20
2023-03-24T20:43:35.780Z,13.10
2023-03-24T20:46:07.522Z,13.00
2023-03-24T20:48:35.465Z,13.00
2023-03-24T20:51:03.960Z,13.00
2023-03-24T20:53:33.007Z,13.00
2023-03-24T20:56:06.927Z,13.00
2023-03-24T20:58:38.018Z,12.90
2023-03-24T21:01:09.142Z,12.90
2023-03-24T21:03:36.694Z,12.80
2023-03-24T21:06:04.253Z,12.80
2023-03-24T21:08:31.102Z,12.70
2023-03-24T21:15:55.630Z,12.50
2023-03-24T21:18:22.473Z,12.50
2023-03-24T21:20:55.345Z,12.50
2023-03-24T21:23:23.182Z,12.50
2023-03-24T21:25:51.815Z,12.50
2023-03-24T21:28:19.177Z,12.40
2023-03-24T21:30:46.655Z,12.40
2023-03-24T21:33:14.865Z,12.30
2023-03-24T21:35:41.772Z,12.30
2023-03-24T21:38:09.770Z,12.30
2023-03-24T21:40:37.393Z,12.30
2023-03-24T21:43:07.308Z,12.20
2023-03-24T21:45:38.602Z,12.20
2023-03-24T21:48:06.884Z,12.10
2023-03-24T21:50:35.190Z,12.10
2023-03-24T21:53:02.705Z,12.10
2023-03-24T21:55:30.185Z,12.10
2023-03-24T21:57:57.817Z,12.10
2023-03-24T22:00:26.352Z,12.20
2023-03-24T22:02:54.383Z,12.20
2023-03-24T22:05:23.753Z,12.20
2023-03-24T22:07:51.592Z,12.20
2023-03-24T22:10:23.116Z,12.20
2023-03-24T22:12:51.693Z,12.20
2023-03-24T22:15:18.942Z,12.30
2023-03-24T22:17:45.881Z,12.20
2023-03-24T22:20:13.720Z,12.20
2023-03-24T22:22:41.202Z,12.10
2023-03-24T22:25:10.255Z,12.10
2023-03-24T22:27:38.381Z,12.10
2023-03-24T22:30:11.823Z,12.00
2023-03-24T22:32:39.342Z,12.00
2023-03-24T22:35:07.428Z,12.00
2023-03-24T22:37:34.553Z,11.90
2023-03-24T22:40:01.340Z,12.00
2023-03-24T22:42:28.164Z,12.00
2023-03-24T22:44:54.966Z,11.90
2023-03-24T22:47:21.872Z,11.90
2023-03-24T22:49:48.714Z,12.00
2023-03-24T22:52:15.514Z,12.00
2023-03-24T22:54:42.338Z,12.00
2023-03-24T22:57:09.211Z,12.10
2023-03-24T22:59:36.198Z,12.00
2023-03-24T23:02:09.947Z,12.00
2023-03-24T23:04:39.808Z,12.00
2023-03-24T23:07:07.777Z,11.90
2023-03-24T23:09:35.100Z,11.90
2023-03-24T23:12:01.997Z,11.90
2023-03-24T23:14:29.005Z,11.80
2023-03-24T23:16:56.566Z,11.70
2023-03-24T23:19:23.462Z,11.80
2023-03-24T23:21:50.507Z,11.80
2023-03-24T23:24:17.502Z,11.80
2023-03-24T23:26:44.450Z,11.70
2023-03-24T23:29:11.241Z,11.70
2023-03-24T23:31:38.146Z,11.70
2023-03-24T23:34:07.634Z,11.70
2023-03-24T23:36:34.532Z,11.80
2023-03-24T23:39:01.351Z,11.80
2023-03-24T23:41:28.168Z,11.80
2023-03-24T23:43:55.292Z,11.80
2023-03-24T23:46:24.037Z,11.80
2023-03-24T23:48:51.039Z,11.80
2023-03-24T23:51:17.971Z,11.80
2023-03-24T23:53:44.879Z,11.80
2023-03-24T23:56:14.214Z,11.70
2023-03-24T23:58:42.684Z,11.70
